createdAt,value
2019-01-02T00:00:18.076Z,6.60
2019-01-02T00:02:48.015Z,6.60
2019-01-02T00:05:17.509Z,6.50
2019-01-02T00:07:46.970Z,6.60
2019-01-02T00:10:16.325Z,6.50
2019-01-02T00:12:45.815Z,6.50
2019-01-02T00:15:15.421Z,6.50
2019-01-02T00:17:44.959Z,6.50
2019-01-02T00:20:17.295Z,6.50
2019-01-02T00:22:46.841Z,6.50
2019-01-02T00:25:16.267Z,6.50
2019-01-02T00:27:46.079Z,6.60
2019-01-02T00:30:15.606Z,6.60
2019-01-02T00:32:45.639Z,6.60
2019-01-02T00:35:15.176Z,6.70
2019-01-02T00:37:45.962Z,6.70
2019-01-02T00:40:15.559Z,6.70
2019-01-02T00:42:45.498Z,6.70
2019-01-02T00:45:14.951Z,6.60
2019-01-02T00:47:45.224Z,6.60
2019-01-02T00:50:14.766Z,6.50
2019-01-02T00:52:45.594Z,6.50
2019-01-02T00:55:15.022Z,6.50
2019-01-02T00:57:45.393Z,6.40
2019-01-02T01:00:18.252Z,6.40
2019-01-02T01:02:47.862Z,6.50
2019-01-02T01:05:17.590Z,6.50
2019-01-02T01:07:47.441Z,6.60
2019-01-02T01:10:17.939Z,6.60
2019-01-02T01:12:47.773Z,6.60
2019-01-02T01:15:17.503Z,6.60
2019-01-02T01:17:47.310Z,6.50
2019-01-02T01:20:17.633Z,6.60
2019-01-02T01:22:47.104Z,6.60
2019-01-02T01:25:16.538Z,6.60
2019-01-02T01:27:46.056Z,6.70
2019-01-02T01:30:16.060Z,6.70
2019-01-02T01:32:46.057Z,6.60
2019-01-02T01:35:15.592Z,6.50
2019-01-02T01:37:46.763Z,6.60
2019-01-02T01:40:17.839Z,6.60
2019-01-02T01:42:47.445Z,6.60
2019-01-02T01:45:17.212Z,6.50
2019-01-02T01:47:46.790Z,6.50
2019-01-02T01:50:16.858Z,6.60
2019-01-02T01:52:46.298Z,6.60
2019-01-02T01:55:15.691Z,6.60
2019-01-02T01:57:45.449Z,6.50
2019-01-02T02:00:16.634Z,6.60
2019-01-02T02:02:46.239Z,6.60
2019-01-02T02:05:15.766Z,6.50
2019-01-02T02:07:45.365Z,6.50
2019-01-02T02:10:16.280Z,6.50
2019-01-02T02:12:45.773Z,6.60
2019-01-02T02:15:15.318Z,6.60
2019-01-02T02:17:45.119Z,6.70
2019-01-02T02:20:14.721Z,6.70
2019-01-02T02:22:44.250Z,6.60
2019-01-02T02:25:17.118Z,6.50
2019-01-02T02:27:46.554Z,6.50
2019-01-02T02:30:17.304Z,6.50
2019-01-02T02:32:46.868Z,6.50
2019-01-02T02:35:18.298Z,6.50
2019-01-02T02:37:47.819Z,6.50
2019-01-02T02:40:17.400Z,6.50
2019-01-02T02:42:46.888Z,6.50
2019-01-02T02:45:16.717Z,6.40
2019-01-02T02:47:46.723Z,6.40
2019-01-02T02:50:18.192Z,6.30
2019-01-02T02:52:47.955Z,6.30
2019-01-02T02:55:19.462Z,6.30
2019-01-02T02:58:01.499Z,6.30
2019-01-02T03:00:30.934Z,6.20
2019-01-02T03:03:00.495Z,6.20
2019-01-02T03:05:29.943Z,6.10
2019-01-02T03:07:59.800Z,6.20
2019-01-02T03:10:29.703Z,6.10
2019-01-02T03:12:59.569Z,6.10
2019-01-02T03:15:29.428Z,6.00
2019-01-02T03:17:58.960Z,6.00
2019-01-02T03:20:28.423Z,6.00
2019-01-02T03:22:58.041Z,5.90
2019-01-02T03:25:27.883Z,5.90
2019-01-02T03:27:57.906Z,5.90
2019-01-02T03:30:27.666Z,5.90
2019-01-02T03:32:57.322Z,5.90
2019-01-02T03:35:26.959Z,5.90
2019-01-02T03:37:56.374Z,5.90
2019-01-02T03:40:25.811Z,6.00
2019-01-02T03:42:55.265Z,5.90
2019-01-02T03:45:24.652Z,5.90
2019-01-02T03:47:54.200Z,5.90
2019-01-02T03:50:25.659Z,5.90
2019-01-02T03:52:56.860Z,5.90
2019-01-02T03:55:26.287Z,6.10
2019-01-02T03:57:55.746Z,6.00
2019-01-02T04:00:25.365Z,5.90
2019-01-02T04:02:54.983Z,6.00
2019-01-02T04:05:25.382Z,6.00
2019-01-02T04:08:00.436Z,6.00
2019-01-02T04:10:29.808Z,6.00
2019-01-02T04:12:59.183Z,5.90
2019-01-02T04:15:28.609Z,5.80
2019-01-02T04:17:58.046Z,5.80
2019-01-02T04:20:27.494Z,5.80
2019-01-02T04:22:57.111Z,5.80
2019-01-02T04:25:26.460Z,5.90
2019-01-02T04:27:55.897Z,5.90
2019-01-02T04:30:29.199Z,5.90
2019-01-02T04:33:11.400Z,5.90
2019-01-02T04:35:42.307Z,5.90
2019-01-02T04:38:13.618Z,5.90
2019-01-02T04:40:55.634Z,5.90
2019-01-02T04:43:25.246Z,6.10
2019-01-02T04:45:55.267Z,6.10
2019-01-02T04:48:24.622Z,6.10
2019-01-02T04:50:54.103Z,6.10
2019-01-02T04:53:23.520Z,6.10
2019-01-02T04:55:53.155Z,6.10
2019-01-02T04:58:22.515Z,6.10
2019-01-02T05:00:52.061Z,6.10
2019-01-02T05:03:21.471Z,6.00
2019-01-02T05:05:50.995Z,6.00
2019-01-02T05:08:20.339Z,5.90
2019-01-02T05:10:49.714Z,5.90
2019-01-02T05:13:19.080Z,5.80
2019-01-02T05:15:50.170Z,5.90
2019-01-02T05:18:19.579Z,6.00
2019-01-02T05:20:50.626Z,5.90
2019-01-02T05:23:20.044Z,5.90
2019-01-02T05:25:51.291Z,5.90
2019-01-02T05:28:20.647Z,6.00
2019-01-02T05:30:50.023Z,6.10
2019-01-02T05:33:19.371Z,6.20
2019-01-02T05:35:50.282Z,6.20
2019-01-02T05:38:19.701Z,6.10
2019-01-02T05:40:49.216Z,6.00
2019-01-02T05:43:18.620Z,5.80
2019-01-02T05:45:48.022Z,5.70
2019-01-02T05:48:17.363Z,5.60
2019-01-02T05:50:46.910Z,5.60
2019-01-02T05:53:16.259Z,5.60
2019-01-02T05:55:45.711Z,5.70
2019-01-02T05:58:15.125Z,5.80
2019-01-02T06:00:44.504Z,5.80
2019-01-02T06:03:13.866Z,5.80
2019-01-02T06:05:43.246Z,5.90
2019-01-02T06:08:12.607Z,6.00
2019-01-02T06:10:42.392Z,5.90
2019-01-02T06:13:11.888Z,5.80
2019-01-02T06:15:41.350Z,5.80
2019-01-02T06:18:10.787Z,5.70
2019-01-02T06:20:40.347Z,5.60
2019-01-02T06:23:09.735Z,5.60
2019-01-02T06:25:39.261Z,5.50
2019-01-02T06:28:08.732Z,5.50
2019-01-02T06:30:38.390Z,5.50
2019-01-02T06:33:07.861Z,5.50
2019-01-02T06:35:37.388Z,5.50
2019-01-02T06:38:06.845Z,5.50
2019-01-02T06:40:36.261Z,5.40
2019-01-02T06:43:05.689Z,5.50
2019-01-02T06:45:35.214Z,5.50
2019-01-02T06:48:05.831Z,5.70
2019-01-02T06:50:35.416Z,5.80
2019-01-02T06:53:04.882Z,5.80
2019-01-02T06:55:34.360Z,5.90
2019-01-02T06:58:03.802Z,5.90
2019-01-02T07:00:33.360Z,5.90
2019-01-02T07:03:03.190Z,5.90
2019-01-02T07:05:32.739Z,5.90
2019-01-02T07:08:02.177Z,5.80
2019-01-02T07:10:31.730Z,5.70
2019-01-02T07:13:01.135Z,5.60
2019-01-02T07:15:30.521Z,5.50
2019-01-02T07:17:59.977Z,5.40
2019-01-02T07:20:29.426Z,5.20
2019-01-02T07:22:58.915Z,5.20
2019-01-02T07:25:28.322Z,5.20
2019-01-02T07:27:58.009Z,5.10
2019-01-02T07:30:27.567Z,5.10
2019-01-02T07:32:57.622Z,5.10
2019-01-02T07:35:51.711Z,5.10
2019-01-02T07:38:40.664Z,5.10
2019-01-02T07:41:13.212Z,5.10
2019-01-02T07:43:55.280Z,5.10
2019-01-02T07:47:05.097Z,5.20
2019-01-02T07:50:14.294Z,5.20
2019-01-02T07:53:01.745Z,5.30
2019-01-02T07:55:49.233Z,5.40
2019-01-02T07:58:42.970Z,5.30
2019-01-02T08:01:47.030Z,5.20
2019-01-02T08:04:49.575Z,5.10
2019-01-02T08:07:39.982Z,5.00
2019-01-02T08:10:21.539Z,4.90
2019-01-02T08:13:05.829Z,4.90
2019-01-02T08:15:55.301Z,4.80
2019-01-02T08:18:49.132Z,4.80
2019-01-02T08:21:44.336Z,4.80
2019-01-02T08:24:28.576Z,4.90
2019-01-02T08:27:22.295Z,4.80
2019-01-02T08:30:12.615Z,4.80
2019-01-02T08:32:54.127Z,4.80
2019-01-02T08:35:46.113Z,4.80
2019-01-02T08:38:18.635Z,4.90
2019-01-02T08:41:03.115Z,5.00
2019-01-02T08:43:44.329Z,5.10
2019-01-02T08:46:34.720Z,5.20
2019-01-02T08:49:13.095Z,5.40
2019-01-02T08:51:51.035Z,5.50
2019-01-02T08:54:40.105Z,5.50
2019-01-02T08:57:15.387Z,5.60
2019-01-02T09:00:00.668Z,5.70
2019-01-02T09:02:54.589Z,5.90
2019-01-02T09:05:32.872Z,6.10
2019-01-02T09:08:25.857Z,6.20
2019-01-02T09:11:19.580Z,6.40
2019-01-02T09:13:57.916Z,6.50
2019-01-02T09:16:47.261Z,6.70
2019-01-02T09:19:39.336Z,6.60
2019-01-02T09:22:17.775Z,6.70
2019-01-02T09:25:25.470Z,7.00
2019-01-02T09:28:23.546Z,7.00
2019-01-02T09:30:58.844Z,6.70
2019-01-02T09:33:35.389Z,6.40
2019-01-02T09:36:17.061Z,6.20
2019-01-02T09:38:58.495Z,6.30
2019-01-02T09:41:33.819Z,6.50
2019-01-02T09:44:18.543Z,6.90
2019-01-02T09:47:18.025Z,7.10
2019-01-02T09:49:50.563Z,7.30
2019-01-02T09:52:43.735Z,7.50
2019-01-02T09:55:28.963Z,7.70
2019-01-02T09:58:37.696Z,7.90
2019-01-02T10:01:30.889Z,8.20
2019-01-02T10:04:12.408Z,8.10
2019-01-02T10:06:53.783Z,8.10
2019-01-02T10:09:45.964Z,8.00
2019-01-02T10:12:24.296Z,8.10
2019-01-02T10:15:22.689Z,8.20
2019-01-02T10:18:08.490Z,8.40
2019-01-02T10:20:48.093Z,8.30
2019-01-02T10:23:35.016Z,7.70
2019-01-02T10:26:16.514Z,7.40
2019-01-02T10:28:49.189Z,7.10
2019-01-02T10:31:38.126Z,7.00
2019-01-02T10:34:25.742Z,6.90
2019-01-02T10:37:12.512Z,7.00
2019-01-02T10:40:00.330Z,7.30
2019-01-02T10:42:44.932Z,7.50
2019-01-02T10:45:35.372Z,7.40
2019-01-02T10:48:19.699Z,7.20
2019-01-02T10:51:12.836Z,7.00
2019-01-02T10:54:05.960Z,6.90
2019-01-02T10:56:41.147Z,6.80
2019-01-02T10:59:34.821Z,6.60
2019-01-02T11:02:07.441Z,6.50
2019-01-02T11:04:54.861Z,6.40
2019-01-02T11:07:33.270Z,6.40
2019-01-02T11:10:11.957Z,6.50
2019-01-02T11:13:01.518Z,6.50
2019-01-02T11:15:43.071Z,6.30
2019-01-02T11:18:33.449Z,6.20
2019-01-02T11:21:27.277Z,6.20
2019-01-02T11:24:14.696Z,6.70
2019-01-02T11:26:55.831Z,7.20
2019-01-02T11:29:40.782Z,7.10
2019-01-02T11:32:22.420Z,6.70
2019-01-02T11:35:18.357Z,6.40
2019-01-02T11:37:53.533Z,6.10
2019-01-02T11:40:46.558Z,6.00
2019-01-02T11:43:27.764Z,6.00
2019-01-02T11:45:57.174Z,6.10
2019-01-02T11:48:26.575Z,6.30
2019-01-02T11:50:56.055Z,6.30
2019-01-02T11:53:25.600Z,6.40
2019-01-02T11:55:55.063Z,6.50
2019-01-02T11:58:26.026Z,6.50
2019-01-02T12:00:55.393Z,6.50
2019-01-02T12:03:24.788Z,6.60
2019-01-02T12:05:54.134Z,6.50
2019-01-02T12:08:23.605Z,6.60
2019-01-02T12:10:52.968Z,6.60
2019-01-02T12:13:22.436Z,6.60
2019-01-02T12:15:52.028Z,6.60
2019-01-02T12:18:21.444Z,6.70
2019-01-02T12:20:51.141Z,6.70
2019-01-02T12:23:22.209Z,6.70
2019-01-02T12:25:51.632Z,6.70
2019-01-02T12:28:21.093Z,6.80
2019-01-02T12:30:50.515Z,6.90
2019-01-02T12:33:19.915Z,7.00
2019-01-02T12:35:50.884Z,7.10
2019-01-02T12:38:20.334Z,7.10
2019-01-02T12:40:49.829Z,6.90
2019-01-02T12:43:19.236Z,6.70
2019-01-02T12:45:48.682Z,6.40
2019-01-02T12:48:18.220Z,6.30
2019-01-02T12:50:47.684Z,6.10
2019-01-02T12:53:17.072Z,6.00
2019-01-02T12:55:46.540Z,6.00
2019-01-02T12:58:15.931Z,6.10
2019-01-02T13:00:49.827Z,6.10
2019-01-02T13:03:25.116Z,6.30
2019-01-02T13:06:13.872Z,6.40
2019-01-02T13:09:10.744Z,6.70
2019-01-02T13:11:59.664Z,7.10
2019-01-02T13:14:35.841Z,7.40
2019-01-02T13:17:23.346Z,7.50
2019-01-02T13:20:24.662Z,7.30
2019-01-02T13:23:17.643Z,6.90
2019-01-02T13:25:52.943Z,6.50
2019-01-02T13:28:52.017Z,6.30
2019-01-02T13:31:36.591Z,6.30
2019-01-02T13:34:37.160Z,6.30
2019-01-02T13:37:27.396Z,6.10
2019-01-02T13:40:33.001Z,5.90
2019-01-02T13:43:23.516Z,5.90
2019-01-02T13:46:07.420Z,5.90
2019-01-02T13:48:52.058Z,5.90
2019-01-02T13:51:22.347Z,5.80
2019-01-02T13:53:51.822Z,5.70
2019-01-02T13:56:21.260Z,5.50
2019-01-02T13:58:50.661Z,5.40
2019-01-02T14:01:20.018Z,5.40
2019-01-02T14:03:49.576Z,5.40
2019-01-02T14:06:19.888Z,5.40
2019-01-02T14:08:49.643Z,5.50
2019-01-02T14:11:19.108Z,5.60
2019-01-02T14:13:48.802Z,5.70
2019-01-02T14:16:18.174Z,5.70
2019-01-02T14:18:47.622Z,5.60
2019-01-02T14:21:17.008Z,5.50
2019-01-02T14:23:46.630Z,5.40
2019-01-02T14:26:16.046Z,5.30
2019-01-02T14:28:45.435Z,5.20
2019-01-02T14:31:15.105Z,5.10
2019-01-02T14:33:44.505Z,5.10
2019-01-02T14:36:13.934Z,5.10
2019-01-02T14:38:43.473Z,5.10
2019-01-02T14:41:12.952Z,5.10
2019-01-02T14:43:42.416Z,5.00
2019-01-02T14:46:11.763Z,5.00
2019-01-02T14:48:41.227Z,5.00
2019-01-02T14:51:10.723Z,5.00
2019-01-02T14:53:40.170Z,4.90
2019-01-02T14:56:11.162Z,4.80
2019-01-02T14:58:40.535Z,4.70
2019-01-02T15:01:09.876Z,4.70
2019-01-02T15:03:42.707Z,4.60
2019-01-02T15:06:12.058Z,4.50
2019-01-02T15:08:43.046Z,4.40
2019-01-02T15:11:12.411Z,4.40
2019-01-02T15:13:43.356Z,4.30
2019-01-02T15:16:12.779Z,4.20
2019-01-02T15:18:42.412Z,4.20
2019-01-02T15:21:11.988Z,4.10
2019-01-02T15:23:41.441Z,4.10
2019-01-02T15:26:10.807Z,4.00
2019-01-02T15:28:41.947Z,3.90
2019-01-02T15:31:11.295Z,3.80
2019-01-02T15:33:40.832Z,3.80
2019-01-02T15:36:10.319Z,3.80
2019-01-02T15:38:40.107Z,3.80
2019-01-02T15:41:09.534Z,3.70
2019-01-02T15:43:38.935Z,3.70
2019-01-02T15:46:08.294Z,3.70
2019-01-02T15:48:39.575Z,3.60
2019-01-02T15:51:09.114Z,3.50
2019-01-02T15:53:38.729Z,3.60
2019-01-02T15:56:08.187Z,3.50
2019-01-02T15:58:37.680Z,3.50
2019-01-02T16:01:07.063Z,3.40
2019-01-02T16:03:36.672Z,3.40
2019-01-02T16:06:06.295Z,3.40
2019-01-02T16:08:35.787Z,3.40
2019-01-02T16:11:05.351Z,3.30
2019-01-02T16:13:34.750Z,3.30
2019-01-02T16:16:04.283Z,3.30
2019-01-02T16:18:33.741Z,3.20
2019-01-02T16:21:03.136Z,3.20
2019-01-02T16:23:32.600Z,3.10
2019-01-02T16:26:02.190Z,3.10
2019-01-02T16:28:32.257Z,3.10
2019-01-02T16:31:01.679Z,3.20
2019-01-02T16:33:31.547Z,3.10
2019-01-02T16:36:00.899Z,3.10
2019-01-02T16:38:30.358Z,3.10
2019-01-02T16:40:59.796Z,3.10
2019-01-02T16:43:29.258Z,3.00
2019-01-02T16:45:58.746Z,3.10
2019-01-02T16:48:28.264Z,3.10
2019-01-02T16:50:57.608Z,3.20
2019-01-02T16:53:27.195Z,3.20
2019-01-02T16:55:58.249Z,3.20
2019-01-02T16:58:27.735Z,3.00
2019-01-02T17:00:57.102Z,3.00
2019-01-02T17:03:26.560Z,2.90
2019-01-02T17:05:55.928Z,2.90
2019-01-02T17:08:25.444Z,2.90
2019-01-02T17:10:54.960Z,2.90
2019-01-02T17:13:24.426Z,2.90
2019-01-02T17:15:54.081Z,2.90
2019-01-02T17:18:25.312Z,3.00
2019-01-02T17:21:06.374Z,3.00
2019-01-02T17:23:35.793Z,3.10
2019-01-02T17:26:05.303Z,3.10
2019-01-02T17:28:34.927Z,3.20
2019-01-02T17:31:04.400Z,3.20
2019-01-02T17:33:46.544Z,3.20
2019-01-02T17:36:16.104Z,3.20
2019-01-02T17:38:47.099Z,3.30
2019-01-02T17:41:16.615Z,3.30
2019-01-02T17:43:46.087Z,3.40
2019-01-02T17:46:15.690Z,3.40
2019-01-02T17:48:45.232Z,3.40
2019-01-02T17:51:14.786Z,3.50
2019-01-02T17:53:57.217Z,3.50
2019-01-02T17:56:26.693Z,3.60
2019-01-02T17:59:09.044Z,3.60
2019-01-02T18:01:38.591Z,3.50
2019-01-02T18:04:08.106Z,3.50
2019-01-02T18:06:37.583Z,3.50
2019-01-02T18:09:07.734Z,3.60
2019-01-02T18:11:49.987Z,3.70
2019-01-02T18:14:20.581Z,3.70
2019-01-02T18:16:50.320Z,3.80
2019-01-02T18:19:20.946Z,3.90
2019-01-02T18:21:50.563Z,4.00
2019-01-02T18:24:21.621Z,4.20
2019-01-02T18:26:51.047Z,4.40
2019-01-02T18:29:20.963Z,4.60
2019-01-02T18:31:50.672Z,4.70
2019-01-02T18:34:20.096Z,4.80
2019-01-02T18:36:49.478Z,4.90
2019-01-02T18:39:18.932Z,4.90
2019-01-02T18:41:48.294Z,4.90
2019-01-02T18:44:20.466Z,4.80
2019-01-02T18:46:48.995Z,4.80
2019-01-02T18:49:18.465Z,4.70
2019-01-02T18:51:47.954Z,4.60
2019-01-02T18:54:17.520Z,4.60
2019-01-02T18:56:48.495Z,4.50
2019-01-02T18:59:17.901Z,4.40
2019-01-02T19:01:47.320Z,4.40
2019-01-02T19:04:16.936Z,4.30
2019-01-02T19:06:46.323Z,4.30
2019-01-02T19:09:15.816Z,4.30
2019-01-02T19:11:45.320Z,4.30
2019-01-02T19:14:14.893Z,4.40
2019-01-02T19:16:45.858Z,4.40
2019-01-02T19:19:15.290Z,4.40
2019-01-02T19:21:44.730Z,4.40
2019-01-02T19:24:14.114Z,4.40
2019-01-02T19:26:44.010Z,4.40
2019-01-02T19:29:13.535Z,4.50
2019-01-02T19:31:42.971Z,4.40
2019-01-02T19:34:12.540Z,4.50
2019-01-02T19:36:42.109Z,4.50
2019-01-02T19:39:11.488Z,4.50
2019-01-02T19:41:40.888Z,4.60
2019-01-02T19:44:10.320Z,4.60
2019-01-02T19:46:40.041Z,4.70
2019-01-02T19:49:09.499Z,4.70
2019-01-02T19:51:38.877Z,4.70
2019-01-02T19:54:08.351Z,4.80
2019-01-02T19:56:37.900Z,4.90
2019-01-02T19:59:07.393Z,5.00
2019-01-02T20:01:37.579Z,5.00
2019-01-02T20:04:06.939Z,5.10
2019-01-02T20:06:37.989Z,5.20
2019-01-02T20:09:07.935Z,5.20
2019-01-02T20:11:37.576Z,5.20
2019-01-02T20:14:06.974Z,5.10
2019-01-02T20:16:36.551Z,5.10
2019-01-02T20:19:06.083Z,5.00
2019-01-02T20:21:35.486Z,5.00
2019-01-02T20:24:05.044Z,4.90
2019-01-02T20:26:34.641Z,4.80
2019-01-02T20:29:05.607Z,4.70
2019-01-02T20:31:35.075Z,4.70
2019-01-02T20:34:04.563Z,4.60
2019-01-02T20:36:34.175Z,4.50
2019-01-02T20:39:05.816Z,4.40
2019-01-02T20:41:35.410Z,4.30
2019-01-02T20:44:04.918Z,4.40
2019-01-02T20:46:34.438Z,4.30
2019-01-02T20:49:03.915Z,4.30
2019-01-02T20:51:33.368Z,4.20
2019-01-02T20:54:02.739Z,4.20
2019-01-02T20:56:32.290Z,4.10
2019-01-02T20:59:01.640Z,3.90
2019-01-02T21:01:31.798Z,3.60
2019-01-02T21:04:01.258Z,3.30
2019-01-02T21:06:30.824Z,3.10
2019-01-02T21:09:00.281Z,3.00
2019-01-02T21:11:29.734Z,3.10
2019-01-02T21:13:59.267Z,3.30
2019-01-02T21:16:28.867Z,3.50
2019-01-02T21:18:58.239Z,3.60
2019-01-02T21:21:27.625Z,3.70
2019-01-02T21:23:56.986Z,3.90
2019-01-02T21:26:26.536Z,4.10
2019-01-02T21:28:55.956Z,4.20
2019-01-02T21:31:25.498Z,4.30
2019-01-02T21:33:54.895Z,4.40
2019-01-02T21:36:24.343Z,4.50
2019-01-02T21:38:53.771Z,4.60
2019-01-02T21:41:23.426Z,4.70
2019-01-02T21:43:53.112Z,4.70
2019-01-02T21:46:24.064Z,4.70
2019-01-02T21:48:54.945Z,4.70
2019-01-02T21:51:24.359Z,4.60
2019-01-02T21:53:53.764Z,4.60
2019-01-02T21:56:23.160Z,4.60
2019-01-02T21:58:52.574Z,4.50
2019-01-02T22:01:22.550Z,4.50
2019-01-02T22:03:51.978Z,4.50
2019-01-02T22:06:34.544Z,4.50
2019-01-02T22:09:05.894Z,4.40
2019-01-02T22:11:36.225Z,4.40
2019-01-02T22:14:05.691Z,4.40
2019-01-02T22:16:35.079Z,4.30
2019-01-02T22:19:04.519Z,4.30
2019-01-02T22:21:34.035Z,4.30
2019-01-02T22:24:03.491Z,4.20
2019-01-02T22:26:32.840Z,4.10
2019-01-02T22:29:03.848Z,3.90
2019-01-02T22:31:33.230Z,3.80
2019-01-02T22:34:02.936Z,3.70
2019-01-02T22:36:32.358Z,3.50
2019-01-02T22:39:01.831Z,3.50
2019-01-02T22:41:31.397Z,3.40
2019-01-02T22:44:01.026Z,3.40
2019-01-02T22:46:30.396Z,3.30
2019-01-02T22:48:59.968Z,3.30
2019-01-02T22:51:29.382Z,3.40
2019-01-02T22:53:58.819Z,3.50
2019-01-02T22:56:28.271Z,3.60
2019-01-02T22:58:57.658Z,3.70
2019-01-02T23:01:30.313Z,3.70
2019-01-02T23:07:08.464Z,3.90
2019-01-02T23:09:48.363Z,3.90
2019-01-02T23:15:11.694Z,3.90
2019-01-02T23:17:42.723Z,3.90
2019-01-02T23:20:16.879Z,3.80
2019-01-02T23:23:04.599Z,3.70
2019-01-02T23:25:50.711Z,3.50
2019-01-02T23:28:27.651Z,3.30
2019-01-02T23:31:14.979Z,3.20
2019-01-02T23:34:01.354Z,3.10
2019-01-02T23:36:46.936Z,3.00
2019-01-02T23:39:17.960Z,2.90
2019-01-02T23:41:49.979Z,2.70
2019-01-02T23:44:21.070Z,2.70
2019-01-02T23:47:08.594Z,2.60
2019-01-02T23:49:42.798Z,2.60
2019-01-02T23:52:31.521Z,2.50
2019-01-02T23:55:08.901Z,2.40
2019-01-02T23:57:54.847Z,2.40
